Time;durP1;ratioP1;P1;durP2;ratioP2;P2;SDS_P1;SDS_P2;PMS_P1;PMS_P2;Temp;Humidity;BMP_temperature;BMP_pressure;BME280_temperature;BME280_humidity;BME280_pressure;Samples;Min_cycle;Max_cycle;Signal;HPM_P1;HPM_P2
2021/06/21 00:02:14;;;;;;;6.12;2.33;;;;;;;21.79;60.29;99175.19;1707603;84;21594;-44
2021/06/21 00:04:41;;;;;;;4.80;2.60;;;;;;;21.79;60.27;99177.17;1707848;84;21088;-44
2021/06/21 00:07:08;;;;;;;4.17;2.17;;;;;;;21.79;60.35;99171.05;1707657;84;21045;-44
2021/06/21 00:09:34;;;;;;;3.12;2.00;;;;;;;21.78;60.37;99173.67;1710881;83;21591;-44
2021/06/21 00:12:02;;;;;;;4.97;2.30;;;;;;;21.80;60.47;99179.50;1720924;82;21017;-44
2021/06/21 00:14:28;;;;;;;6.22;2.30;;;;;;;21.81;60.60;99176.92;1721182;83;21088;-44
2021/06/21 00:16:55;;;;;;;7.28;2.40;;;;;;;21.84;60.47;99180.17;1720964;83;21730;-43
2021/06/21 00:19:22;;;;;;;5.78;2.45;;;;;;;21.85;60.40;99169.30;1720769;82;21037;-44
2021/06/21 00:21:49;;;;;;;4.30;2.15;;;;;;;21.84;60.24;99171.89;1720864;83;20957;-44
2021/06/21 00:24:20;;;;;;;5.70;2.08;;;;;;;21.84;60.24;99172.49;1720806;83;20953;-44
2021/06/21 00:26:47;;;;;;;3.45;1.65;;;;;;;21.82;60.18;99168.81;1720955;82;21027;-44
2021/06/21 00:29:14;;;;;;;5.42;2.22;;;;;;;21.80;60.18;99161.56;1720927;83;21426;-44
2021/06/21 00:31:41;;;;;;;3.25;2.00;;;;;;;21.78;60.28;99160.47;1721201;82;20949;-44
2021/06/21 00:34:08;;;;;;;3.80;1.90;;;;;;;21.75;60.37;99156.59;1720887;83;21052;-44
2021/06/21 00:36:34;;;;;;;4.75;2.15;;;;;;;21.73;60.39;99150.75;1721226;83;21093;-44
2021/06/21 00:39:02;;;;;;;5.33;2.20;;;;;;;21.73;60.48;99150.75;1720951;83;21089;-44
2021/06/21 00:41:29;;;;;;;7.08;2.35;;;;;;;21.71;60.53;99146.27;1721414;83;21100;-44
2021/06/21 00:43:55;;;;;;;4.50;2.00;;;;;;;21.71;60.60;99143.52;1720671;83;21029;-44
2021/06/21 00:46:22;;;;;;;5.05;2.02;;;;;;;21.69;60.51;99148.08;1720968;83;21107;-44
2021/06/21 00:48:48;;;;;;;5.47;2.35;;;;;;;21.69;60.55;99141.78;1721053;83;21519;-43
2021/06/21 00:51:15;;;;;;;7.08;2.35;;;;;;;21.70;60.46;99140.58;1720854;83;21072;-44
2021/06/21 00:53:43;;;;;;;2.58;1.85;;;;;;;21.70;60.50;99135.06;1720840;83;21118;-44
2021/06/21 00:56:09;;;;;;;3.42;1.95;;;;;;;21.69;60.49;99137.65;1694343;83;21558;-44
2021/06/21 00:58:36;;;;;;;8.03;2.30;;;;;;;21.67;60.50;99138.11;1720999;83;21042;-44
2021/06/21 01:01:04;;;;;;;5.83;2.10;;;;;;;21.64;60.54;99139.57;1721103;83;21590;-44
2021/06/21 01:03:31;;;;;;;4.70;1.98;;;;;;;21.61;60.58;99135.72;1720992;83;21619;-44
2021/06/21 01:05:58;;;;;;;6.75;2.00;;;;;;;21.60;60.67;99140.28;1720797;83;21080;-44
2021/06/21 01:08:24;;;;;;;3.85;2.15;;;;;;;21.59;60.72;99141.52;1720771;83;21590;-44
2021/06/21 01:10:52;;;;;;;3.27;1.82;;;;;;;21.57;60.83;99141.17;1712509;83;20977;-44
2021/06/21 01:14:19;;;;;;;3.27;1.82;;;;;;;21.55;60.77;99141.60;1707540;84;21017;-44
2021/06/21 01:17:13;;;;;;;3.22;1.95;;;;;;;21.55;60.90;99146.34;1707519;84;21093;-44
2021/06/21 01:20:08;;;;;;;5.47;1.87;;;;;;;21.48;60.98;99150.70;1707634;84;21558;-44
2021/06/21 01:25:46;;;;;;;2.92;1.75;;;;;;;21.42;61.23;99142.19;1773912;79;22800;-43
2021/06/21 01:28:47;;;;;;;4.60;1.85;;;;;;;21.39;61.24;99151.95;1746156;82;20978;-43
2021/06/21 01:31:21;;;;;;;4.40;1.90;;;;;;;21.36;61.21;99141.77;1746334;82;21815;-43
2021/06/21 01:33:48;;;;;;;4.47;1.70;;;;;;;21.30;61.37;99136.02;1746298;82;21828;-43
2021/06/21 01:36:17;;;;;;;4.40;1.72;;;;;;;21.29;61.42;99133.12;1746288;82;20987;-44
2021/06/21 01:38:54;;;;;;;6.65;2.05;;;;;;;21.28;61.47;99134.32;1746301;82;21564;-43
2021/06/21 01:41:26;;;;;;;4.67;1.90;;;;;;;21.25;61.51;99129.05;1746123;82;20931;-43
2021/06/21 01:43:54;;;;;;;3.67;2.00;;;;;;;21.25;61.56;99129.69;1746300;82;21529;-43
2021/06/21 01:46:21;;;;;;;2.75;1.87;;;;;;;21.24;61.52;99131.67;1757935;80;20969;-43
2021/06/21 01:49:07;;;;;;;4.22;1.77;;;;;;;21.21;61.52;99125.63;1660541;84;21068;-43
2021/06/21 01:51:34;;;;;;;3.62;1.95;;;;;;;21.20;61.61;99125.45;1732177;82;20968;-43
2021/06/21 01:54:01;;;;;;;2.85;1.95;;;;;;;21.18;61.64;99132.03;1732295;82;21001;-43
2021/06/21 01:56:35;;;;;;;2.75;2.08;;;;;;;21.18;61.64;99136.77;1732429;82;21130;-43
2021/06/21 01:59:05;;;;;;;4.12;1.90;;;;;;;21.17;61.96;99129.09;1730262;82;21064;-43
2021/06/21 02:01:32;;;;;;;5.58;2.10;;;;;;;21.17;62.13;99133.23;1732231;82;21025;-43
2021/06/21 02:04:01;;;;;;;3.47;1.55;;;;;;;21.15;62.09;99134.89;1732290;82;21507;-43
2021/06/21 02:06:30;;;;;;;3.62;1.90;;;;;;;21.16;62.02;99133.66;1732401;82;21049;-43
2021/06/21 02:08:57;;;;;;;4.37;2.00;;;;;;;21.14;62.03;99139.63;1703612;83;21892;-43
2021/06/21 02:11:27;;;;;;;3.30;1.70;;;;;;;21.14;62.00;99134.12;1732066;82;21013;-43
2021/06/21 02:13:54;;;;;;;4.83;1.85;;;;;;;21.13;61.83;99128.42;1732288;82;21000;-43
2021/06/21 02:16:22;;;;;;;5.95;1.85;;;;;;;21.14;61.89;99119.55;1703276;83;21052;-43
2021/06/21 02:18:50;;;;;;;7.28;2.05;;;;;;;21.14;61.84;99122.31;1732246;82;21047;-43
2021/06/21 02:21:18;;;;;;;3.35;1.90;;;;;;;21.15;61.79;99123.27;1732125;82;21812;-43
2021/06/21 02:23:49;;;;;;;3.05;1.82;;;;;;;21.16;61.77;99124.78;1707334;82;21042;-44
2021/06/21 02:26:22;;;;;;;4.22;2.02;;;;;;;21.16;61.74;99115.14;1694869;84;21000;-43
2021/06/21 02:28:52;;;;;;;3.55;1.82;;;;;;;21.15;61.79;99124.64;1694829;84;21036;-43
2021/06/21 02:31:20;;;;;;;3.62;1.98;;;;;;;21.17;61.83;99128.32;1695566;84;21547;-44
2021/06/21 02:33:47;;;;;;;3.87;1.82;;;;;;;21.16;61.84;99127.55;1695767;84;21783;-43
2021/06/21 02:36:14;;;;;;;4.58;1.70;;;;;;;21.18;61.83;99131.25;1695322;84;21044;-44
2021/06/21 02:38:42;;;;;;;3.15;2.20;;;;;;;21.18;61.84;99134.78;1695210;84;21021;-44
2021/06/21 02:41:10;;;;;;;2.92;2.05;;;;;;;21.20;61.79;99130.97;1694992;84;21029;-44
2021/06/21 02:43:38;;;;;;;2.15;1.77;;;;;;;21.19;61.93;99137.72;1695203;84;21100;-44
2021/06/21 02:46:04;;;;;;;6.53;2.12;;;;;;;21.21;61.98;99142.17;1695040;84;21122;-44
2021/06/21 02:48:31;;;;;;;5.85;2.00;;;;;;;21.21;61.87;99147.69;1695281;84;21563;-44
2021/06/21 02:50:58;;;;;;;4.40;1.62;;;;;;;21.25;61.94;99143.48;1695256;84;20981;-44
2021/06/21 02:53:45;;;;;;;4.97;1.95;;;;;;;21.25;61.96;99137.33;1665312;84;21001;-44
2021/06/21 02:56:37;;;;;;;3.33;2.00;;;;;;;21.26;61.78;99140.86;1694102;83;21064;-44
2021/06/21 02:59:13;;;;;;;4.75;2.40;;;;;;;21.27;61.71;99139.66;1690909;84;21846;-44
2021/06/21 03:01:54;;;;;;;7.42;2.12;;;;;;;21.28;61.76;99141.21;1741375;82;21520;-44
2021/06/21 03:04:22;;;;;;;2.70;1.80;;;;;;;21.33;61.64;99147.58;1741749;82;20990;-44
2021/06/21 03:06:51;;;;;;;7.25;2.00;;;;;;;21.36;61.49;99143.93;1741459;82;21497;-44
2021/06/21 03:09:19;;;;;;;3.35;1.80;;;;;;;21.40;61.47;99150.72;1716192;82;21045;-44
2021/06/21 03:11:52;;;;;;;6.80;2.17;;;;;;;21.44;61.33;99144.52;1748730;82;21781;-44
2021/06/21 03:14:25;;;;;;;2.62;1.90;;;;;;;21.48;61.26;99147.95;1713036;83;21045;-44
2021/06/21 03:16:54;;;;;;;4.12;2.00;;;;;;;21.49;61.40;99152.25;1748512;82;21573;-44
2021/06/21 03:19:21;;;;;;;6.25;1.90;;;;;;;21.51;61.33;99150.59;1713202;83;21080;-44
2021/06/21 03:21:47;;;;;;;4.55;1.85;;;;;;;21.54;61.37;99148.33;1748684;82;21563;-44
2021/06/21 03:24:15;;;;;;;5.22;2.12;;;;;;;21.57;61.39;99148.84;1753673;80;21582;-44
2021/06/21 03:26:43;;;;;;;5.42;2.10;;;;;;;21.61;61.29;99144.59;1782496;80;21023;-44
2021/06/21 03:29:21;;;;;;;5.90;2.17;;;;;;;21.66;61.21;99148.20;1782435;80;21498;-44
2021/06/21 03:31:50;;;;;;;3.77;2.20;;;;;;;21.68;61.14;99147.94;1782385;80;20978;-44
2021/06/21 03:34:20;;;;;;;3.27;1.95;;;;;;;21.72;60.88;99142.30;1782663;80;21084;-44
2021/06/21 03:36:47;;;;;;;5.33;2.05;;;;;;;21.75;60.73;99134.52;1782528;80;21189;-44
2021/06/21 03:39:14;;;;;;;3.98;1.95;;;;;;;21.81;60.68;99133.37;1782338;80;21342;-44
2021/06/21 03:41:41;;;;;;;4.28;1.98;;;;;;;21.85;60.79;99130.66;1782370;80;20968;-44
2021/06/21 03:44:08;;;;;;;4.12;1.80;;;;;;;21.91;60.51;99131.67;1781844;80;21551;-44
2021/06/21 03:46:36;;;;;;;3.80;1.70;;;;;;;21.97;60.41;99131.92;1780663;80;21041;-44
2021/06/21 03:49:04;;;;;;;4.40;1.70;;;;;;;22.01;60.22;99133.36;1751481;82;22216;-44
2021/06/21 03:51:31;;;;;;;3.77;1.90;;;;;;;22.05;60.02;99140.92;1751496;82;20973;-44
2021/06/21 03:53:57;;;;;;;7.30;1.82;;;;;;;22.09;60.02;99138.04;1751350;82;21005;-44
2021/06/21 03:56:24;;;;;;;6.28;1.67;;;;;;;22.15;59.86;99134.89;1751330;82;20972;-44
2021/06/21 03:58:51;;;;;;;2.83;1.70;;;;;;;22.21;59.62;99135.11;1751622;82;21010;-44
2021/06/21 04:01:18;;;;;;;3.85;2.15;;;;;;;22.25;59.64;99127.48;1751438;82;21085;-44
2021/06/21 04:03:45;;;;;;;4.72;1.90;;;;;;;22.32;59.56;99119.73;1751260;82;21004;-44
2021/06/21 04:06:12;;;;;;;5.15;1.87;;;;;;;22.37;59.45;99113.65;1751385;82;20937;-44
2021/06/21 04:08:39;;;;;;;3.10;1.80;;;;;;;22.43;59.48;99115.24;1751728;82;21529;-44
2021/06/21 04:11:06;;;;;;;2.90;1.82;;;;;;;22.49;59.40;99116.23;1780966;80;21076;-44
2021/06/21 04:13:34;;;;;;;3.85;1.67;;;;;;;22.54;59.41;99120.59;1782517;80;21207;-44
2021/06/21 04:16:01;;;;;;;2.60;1.90;;;;;;;22.60;59.23;99115.27;1782280;80;21024;-45
2021/06/21 04:18:27;;;;;;;3.47;1.92;;;;;;;22.68;59.24;99117.17;1782442;80;20930;-44
2021/06/21 04:20:56;;;;;;;3.90;1.90;;;;;;;22.74;58.98;99122.33;1782356;80;21502;-44
2021/06/21 04:23:23;;;;;;;3.90;2.30;;;;;;;22.79;58.79;99121.77;1762701;80;21040;-44
2021/06/21 04:25:50;;;;;;;2.50;1.77;;;;;;;22.83;59.04;99125.17;1741188;82;21375;-44
2021/06/21 04:28:16;;;;;;;3.72;1.85;;;;;;;22.89;58.69;99114.48;1736310;82;21008;-44
2021/06/21 04:30:45;;;;;;;5.35;2.08;;;;;;;22.93;57.98;99112.37;1689038;85;20946;-44
2021/06/21 04:33:12;;;;;;;2.15;1.82;;;;;;;22.98;58.07;99117.94;1736319;82;20969;-44
2021/06/21 04:35:39;;;;;;;4.25;1.90;;;;;;;23.04;58.13;99115.37;1689081;84;21081;-44
2021/06/21 04:38:06;;;;;;;4.60;1.80;;;;;;;23.08;57.95;99111.25;1688998;85;21756;-44
2021/06/21 04:40:35;;;;;;;5.70;1.95;;;;;;;23.13;58.04;99109.91;1688995;85;21056;-44
2021/06/21 04:43:02;;;;;;;5.42;1.90;;;;;;;23.19;57.73;99118.53;1736673;82;20993;-44
2021/06/21 04:45:29;;;;;;;4.35;1.80;;;;;;;23.28;57.79;99115.08;1689664;83;21258;-44
2021/06/21 04:47:55;;;;;;;3.80;2.00;;;;;;;23.34;57.26;99116.02;1713063;83;21041;-44
2021/06/21 04:50:22;;;;;;;5.40;2.00;;;;;;;23.40;57.31;99112.84;1712784;83;21161;-44
2021/06/21 04:52:50;;;;;;;3.70;2.05;;;;;;;23.47;56.79;99114.61;1712664;83;20969;-44
2021/06/21 04:55:19;;;;;;;4.70;1.92;;;;;;;23.50;56.80;99120.61;1712879;83;21530;-44
2021/06/21 04:57:46;;;;;;;4.28;1.98;;;;;;;23.52;57.00;99114.03;1712799;83;21023;-44
2021/06/21 05:00:16;;;;;;;5.97;2.20;;;;;;;23.57;57.06;99110.06;1712755;83;21049;-44
2021/06/21 05:02:43;;;;;;;;;;;;;;;23.63;56.61;99112.38;1715529;83;21098;-44
2021/06/21 05:05:11;;;;;;;3.92;2.12;;;;;;;23.68;56.63;99114.56;1712679;83;20140;-44
2021/06/21 05:07:38;;;;;;;3.70;1.80;;;;;;;23.62;56.93;99110.86;1712673;83;21024;-44
2021/06/21 05:10:07;;;;;;;5.85;2.17;;;;;;;23.71;57.39;99119.20;1748418;82;21012;-44
2021/06/21 05:12:36;;;;;;;3.45;1.95;;;;;;;23.79;57.43;99122.46;1748477;82;20981;-44
2021/06/21 05:15:05;;;;;;;2.95;1.75;;;;;;;23.89;57.04;99115.73;1748458;82;21147;-44
2021/06/21 05:17:32;;;;;;;3.67;1.80;;;;;;;23.97;57.15;99114.84;1748734;82;20973;-44
2021/06/21 05:19:59;;;;;;;5.83;2.05;;;;;;;24.04;56.40;99109.80;1748428;82;20925;-44
2021/06/21 05:22:25;;;;;;;6.47;1.98;;;;;;;24.13;55.88;99113.21;1748487;82;20976;-44
2021/06/21 05:24:54;;;;;;;4.92;2.00;;;;;;;24.21;56.01;99110.33;1752206;80;21618;-44
2021/06/21 05:27:21;;;;;;;2.15;1.72;;;;;;;24.30;55.48;99109.61;1773999;80;21140;-44
2021/06/21 05:29:47;;;;;;;6.70;1.67;;;;;;;24.36;55.37;99104.38;1773921;80;22005;-44
2021/06/21 05:32:15;;;;;;;2.85;1.72;;;;;;;24.44;54.76;99107.63;1773839;80;21498;-44
2021/06/21 05:34:42;;;;;;;6.72;1.95;;;;;;;24.51;54.21;99103.16;1773972;80;21324;-44
2021/06/21 05:37:08;;;;;;;6.28;2.00;;;;;;;24.58;53.46;99105.66;1773733;80;21069;-44
2021/06/21 05:39:35;;;;;;;6.53;2.10;;;;;;;24.66;52.96;99103.50;1773881;80;21137;-44
2021/06/21 05:42:02;;;;;;;6.10;1.92;;;;;;;24.74;53.13;99108.75;1773860;80;20953;-44
2021/06/21 05:44:29;;;;;;;3.42;1.82;;;;;;;24.80;53.00;99106.89;1773761;80;20965;-44
2021/06/21 05:46:56;;;;;;;5.22;1.70;;;;;;;24.88;53.07;99115.10;1773839;80;21041;-44
2021/06/21 05:49:24;;;;;;;4.92;2.05;;;;;;;24.95;52.44;99116.16;1736781;82;21776;-44
2021/06/21 05:51:51;;;;;;;4.67;1.98;;;;;;;25.01;52.76;99118.48;1736782;82;21168;-44
2021/06/21 05:54:18;;;;;;;4.35;1.95;;;;;;;25.08;53.23;99117.55;1736690;82;21009;-44
2021/06/21 05:56:44;;;;;;;2.90;1.72;;;;;;;25.15;52.12;99119.24;1736753;82;21025;-44
2021/06/21 05:59:11;;;;;;;7.53;2.20;;;;;;;25.23;52.06;99114.91;1736839;82;21531;-44
2021/06/21 06:01:38;;;;;;;3.45;1.80;;;;;;;25.29;52.01;99110.28;1736865;82;21556;-44
2021/06/21 06:04:04;;;;;;;5.15;2.10;;;;;;;25.35;51.96;99104.88;1736776;82;21093;-44
2021/06/21 06:06:31;;;;;;;5.05;1.77;;;;;;;25.42;51.37;99105.92;1736699;82;21921;-44
2021/06/21 06:08:57;;;;;;;4.10;1.77;;;;;;;25.48;51.47;99099.29;1736747;82;21014;-44
2021/06/21 06:11:24;;;;;;;3.17;1.62;;;;;;;25.53;51.95;99098.66;1737045;82;21037;-44
2021/06/21 06:13:51;;;;;;;2.42;1.90;;;;;;;25.61;51.49;99102.54;1737017;82;21061;-44
2021/06/21 06:16:18;;;;;;;2.50;1.67;;;;;;;25.69;51.67;99105.91;1736953;82;21104;-44
2021/06/21 06:18:45;;;;;;;4.17;2.00;;;;;;;25.75;51.91;99098.48;1736876;82;21062;-44
2021/06/21 06:21:13;;;;;;;4.40;1.87;;;;;;;25.83;51.68;99100.29;1736901;82;21021;-44
2021/06/21 06:23:40;;;;;;;4.17;2.12;;;;;;;25.90;51.00;99089.59;1736951;82;21527;-44
2021/06/21 06:26:07;;;;;;;5.25;1.82;;;;;;;25.98;51.05;99087.27;1736864;82;21054;-44
2021/06/21 06:28:38;;;;;;;5.13;1.70;;;;;;;26.05;49.85;99074.41;1737279;82;20958;-44
2021/06/21 06:31:05;;;;;;;7.10;1.90;;;;;;;26.12;49.33;99074.08;1736859;82;21017;-44
2021/06/21 06:33:33;;;;;;;6.40;1.80;;;;;;;26.15;49.86;99073.73;1737068;82;20974;-44
2021/06/21 06:36:00;;;;;;;3.12;1.52;;;;;;;26.19;49.71;99068.80;1736948;82;20949;-44
2021/06/21 06:38:26;;;;;;;5.12;1.90;;;;;;;26.26;48.88;99067.07;1737020;82;21034;-44
2021/06/21 06:40:54;;;;;;;4.22;1.80;;;;;;;26.32;49.00;99056.84;1737078;82;21944;-44
2021/06/21 06:43:20;;;;;;;3.58;1.70;;;;;;;26.39;48.69;99057.86;1773212;80;21525;-44
2021/06/21 06:45:49;;;;;;;4.55;1.55;;;;;;;26.46;47.75;99063.70;1773829;80;21020;-44
2021/06/21 06:48:15;;;;;;;4.00;2.00;;;;;;;26.53;47.87;99070.30;1773908;80;21343;-44
2021/06/21 06:50:42;;;;;;;4.90;1.90;;;;;;;26.61;48.24;99063.13;1774144;80;21614;-44
2021/06/21 06:53:09;;;;;;;4.37;1.72;;;;;;;26.68;48.17;99060.73;1773957;80;21939;-44
2021/06/21 06:58:22;;;;;;;5.92;1.62;;;;;;;26.85;48.16;99058.91;1774123;80;20985;-44
2021/06/21 07:00:48;;;;;;;4.87;1.80;;;;;;;26.93;48.03;99056.69;1736899;82;22053;-44
2021/06/21 07:03:15;;;;;;;6.60;1.80;;;;;;;27.02;48.44;99057.22;1737019;82;21084;-44
2021/06/21 07:05:43;;;;;;;5.28;1.80;;;;;;;27.11;48.01;99050.20;1752146;80;21141;-44
2021/06/21 07:08:10;;;;;;;2.17;1.42;;;;;;;27.20;47.64;99059.23;1773820;80;20997;-44
2021/06/21 07:10:37;;;;;;;4.15;1.77;;;;;;;27.28;47.58;99054.65;1773956;80;21024;-44
2021/06/21 07:13:03;;;;;;;5.15;1.92;;;;;;;27.35;47.13;99052.27;1736846;82;21512;-44
2021/06/21 07:15:30;;;;;;;5.08;2.05;;;;;;;27.42;47.08;99050.47;1737046;82;21037;-44
2021/06/21 07:17:58;;;;;;;9.58;2.00;;;;;;;27.52;47.59;99053.95;1736753;82;20982;-44
2021/06/21 07:20:25;;;;;;;3.37;1.70;;;;;;;27.62;47.19;99049.80;1737050;82;20903;-44
2021/06/21 07:22:51;;;;;;;3.00;1.70;;;;;;;27.66;46.91;99045.57;1737084;82;20998;-44
2021/06/21 07:25:18;;;;;;;5.35;1.82;;;;;;;27.68;46.96;99047.87;1736808;82;20993;-44
2021/06/21 07:27:45;;;;;;;2.72;1.92;;;;;;;27.70;46.72;99043.97;1737003;82;21031;-44
2021/06/21 07:30:15;;;;;;;4.35;1.98;;;;;;;27.78;46.61;99043.73;1736980;82;21812;-44
2021/06/21 07:32:41;;;;;;;4.30;1.90;;;;;;;27.89;46.77;99036.91;1737054;82;21653;-44
2021/06/21 07:35:10;;;;;;;2.27;1.72;;;;;;;28.00;46.18;99029.34;1773970;80;21020;-44
2021/06/21 07:37:36;;;;;;;4.67;1.90;;;;;;;28.07;46.67;99031.11;1773913;80;20953;-44
2021/06/21 07:40:05;;;;;;;5.58;1.72;;;;;;;28.13;46.51;99027.00;1773840;80;21602;-44
2021/06/21 07:42:32;;;;;;;5.05;1.80;;;;;;;28.22;46.66;99029.68;1774109;80;21122;-44
2021/06/21 07:44:59;;;;;;;4.40;1.80;;;;;;;28.30;46.32;99030.02;1773749;80;20988;-44
2021/06/21 07:47:26;;;;;;;3.58;2.02;;;;;;;28.40;46.68;99027.23;1773864;80;21072;-44
2021/06/21 07:49:54;;;;;;;3.08;1.85;;;;;;;28.52;46.45;99035.86;1773729;80;21359;-44
2021/06/21 07:52:20;;;;;;;5.42;2.00;;;;;;;28.62;45.95;99030.27;1736797;82;21058;-44
2021/06/21 07:54:48;;;;;;;2.98;1.90;;;;;;;28.73;46.08;99025.48;1736945;82;21826;-44
2021/06/21 07:57:15;;;;;;;2.55;1.70;;;;;;;28.85;46.24;99029.28;1736797;82;21408;-44
2021/06/21 07:59:42;;;;;;;3.95;2.17;;;;;;;28.93;45.60;99022.02;1736838;82;21034;-44
2021/06/21 08:02:09;;;;;;;5.53;1.90;;;;;;;29.00;44.46;99022.84;1736762;82;21021;-44
2021/06/21 08:04:36;;;;;;;5.75;1.95;;;;;;;29.08;44.63;99026.09;1736902;82;21025;-44
2021/06/21 08:07:04;;;;;;;7.95;1.95;;;;;;;29.18;44.71;99021.11;1736808;82;21130;-44
2021/06/21 08:09:32;;;;;;;5.95;2.15;;;;;;;29.27;43.96;99018.14;1736913;82;21021;-44
2021/06/21 08:12:00;;;;;;;3.62;1.85;;;;;;;29.38;44.43;99015.47;1736915;82;21085;-44
2021/06/21 08:14:26;;;;;;;4.53;2.35;;;;;;;29.50;44.36;99010.09;1736826;82;21077;-44
2021/06/21 08:16:54;;;;;;;5.67;2.47;;;;;;;29.61;44.02;99011.58;1736974;82;21100;-44
2021/06/21 08:19:20;;;;;;;3.65;1.87;;;;;;;29.71;43.92;99010.13;1736965;82;21788;-44
2021/06/21 08:21:48;;;;;;;5.58;2.35;;;;;;;29.85;43.19;99011.84;1736769;82;20999;-44
2021/06/21 08:24:15;;;;;;;6.95;2.35;;;;;;;29.97;44.18;99017.65;1736861;82;21659;-44
2021/06/21 08:26:42;;;;;;;5.03;2.40;;;;;;;30.07;42.53;99014.16;1740940;82;21037;-44
2021/06/21 08:29:08;;;;;;;4.78;2.20;;;;;;;30.11;41.58;99014.67;1744837;82;21081;-44
2021/06/21 08:31:35;;;;;;;9.10;2.35;;;;;;;30.16;42.44;99018.80;1744974;82;21536;-44
2021/06/21 08:34:02;;;;;;;8.38;2.40;;;;;;;30.21;42.91;99027.19;1744644;82;20973;-44
2021/06/21 08:36:28;;;;;;;4.85;2.08;;;;;;;30.28;41.82;99028.75;1744879;82;21024;-44
2021/06/21 08:38:55;;;;;;;5.22;2.00;;;;;;;30.33;42.10;99030.80;1744859;82;20950;-44
2021/06/21 08:41:22;;;;;;;4.90;2.05;;;;;;;30.18;41.87;98998.07;1744792;82;21001;-44
2021/06/21 08:43:49;;;;;;;6.15;2.20;;;;;;;30.46;39.90;99029.73;1744915;82;22008;-44
2021/06/21 08:46:17;;;;;;;4.42;2.08;;;;;;;30.50;40.81;99027.45;1744582;82;21021;-44
2021/06/21 08:48:49;;;;;;;5.87;2.22;;;;;;;30.57;41.01;99033.21;1745093;82;21495;-44
2021/06/21 08:51:16;;;;;;;3.77;2.10;;;;;;;30.68;41.14;99026.26;1782046;80;21001;-44
2021/06/21 08:53:43;;;;;;;4.15;1.98;;;;;;;30.77;41.58;99042.05;1745008;82;21049;-44
2021/06/21 08:56:10;;;;;;;5.55;2.17;;;;;;;30.89;41.09;99039.39;1744770;82;21499;-44
2021/06/21 08:58:39;;;;;;;5.12;1.98;;;;;;;31.02;39.98;99039.72;1744761;82;20923;-44
2021/06/21 09:01:07;;;;;;;5.45;1.90;;;;;;;31.12;38.30;99042.41;1744868;82;21628;-44
2021/06/21 09:03:34;;;;;;;5.50;1.90;;;;;;;31.14;38.54;99035.65;1744728;82;20949;-44
2021/06/21 09:06:01;;;;;;;5.22;2.25;;;;;;;31.20;37.70;99031.45;1782164;80;21044;-44
2021/06/21 09:08:28;;;;;;;5.00;2.02;;;;;;;31.26;37.43;99027.39;1781387;80;21801;-44
2021/06/21 09:10:55;;;;;;;4.70;2.17;;;;;;;31.33;37.55;99022.67;1782096;80;20961;-44
2021/06/21 09:13:22;;;;;;;4.62;2.10;;;;;;;31.40;37.05;99017.97;1782178;80;21012;-44
2021/06/21 09:15:58;;;;;;;7.72;2.10;;;;;;;31.43;37.39;99018.34;1782203;80;21520;-44
2021/06/21 09:18:36;;;;;;;3.77;2.00;;;;;;;31.48;37.39;99020.38;1782418;80;21005;-44
2021/06/21 09:21:27;;;;;;;7.07;2.30;;;;;;;31.53;37.75;99015.28;1782401;80;21129;-44
2021/06/21 09:23:56;;;;;;;5.75;1.90;;;;;;;31.60;37.42;99027.41;1782110;80;21045;-44
2021/06/21 09:26:28;;;;;;;;;;;;;;;31.67;38.01;99028.28;1784817;80;21027;-44
2021/06/21 09:28:58;;;;;;;7.15;2.10;;;;;;;31.68;37.31;99015.16;1782091;80;20159;-44
2021/06/21 09:31:26;;;;;;;4.20;1.82;;;;;;;31.63;36.61;99017.34;1782132;80;21515;-44
2021/06/21 09:33:54;;;;;;;8.13;2.42;;;;;;;31.70;37.00;99018.87;1782325;80;21124;-44
2021/06/21 09:36:33;;;;;;;5.35;2.25;;;;;;;31.79;36.39;99027.77;1782255;80;21526;-44
2021/06/21 09:39:26;;;;;;;5.22;1.62;;;;;;;31.82;35.76;99024.56;1778441;80;21017;-44
2021/06/21 09:42:23;;;;;;;6.17;2.02;;;;;;;31.89;36.37;99029.66;1781710;80;21040;-44
2021/06/21 09:44:55;;;;;;;5.65;2.22;;;;;;;31.98;35.88;99032.19;1780975;80;21641;-44
2021/06/21 09:47:38;;;;;;;4.55;1.80;;;;;;;32.02;36.06;99028.47;1782360;80;21751;-44
2021/06/21 09:50:20;;;;;;;7.05;2.33;;;;;;;32.06;36.59;99032.41;1744292;82;21066;-44
2021/06/21 09:52:59;;;;;;;7.03;1.87;;;;;;;32.11;36.31;99033.83;1782338;80;21020;-44
2021/06/21 09:55:43;;;;;;;5.37;2.07;;;;;;;32.21;35.69;99030.86;1782612;80;21499;-44
2021/06/21 09:58:19;;;;;;;5.80;2.22;;;;;;;32.21;35.67;99039.91;1782535;80;21010;-44
2021/06/21 10:00:51;;;;;;;5.83;1.92;;;;;;;32.23;36.11;99035.33;1782280;80;21054;-44
2021/06/21 10:03:25;;;;;;;7.10;1.80;;;;;;;32.31;36.79;99043.33;1782498;80;20980;-44
2021/06/21 10:06:08;;;;;;;5.83;2.12;;;;;;;32.40;36.27;99041.50;1782326;80;21028;-44
2021/06/21 10:08:53;;;;;;;5.47;1.60;;;;;;;32.45;36.02;99046.33;1782325;80;21037;-44
2021/06/21 10:11:37;;;;;;;5.83;1.67;;;;;;;32.49;35.83;99042.60;1782374;80;21029;-44
2021/06/21 10:14:10;;;;;;;4.47;1.87;;;;;;;32.48;36.20;99039.06;1782440;80;21094;-44
2021/06/21 10:16:37;;;;;;;5.50;1.72;;;;;;;32.41;35.85;99048.64;1782225;80;21000;-44
2021/06/21 10:19:07;;;;;;;4.62;2.02;;;;;;;32.28;36.28;99043.60;1782198;80;20999;-44
2021/06/21 10:21:38;;;;;;;3.30;1.82;;;;;;;32.15;36.32;99044.77;1782221;80;21522;-44
2021/06/21 10:24:06;;;;;;;6.08;2.05;;;;;;;32.07;36.77;99044.52;1782320;80;21072;-44
2021/06/21 10:26:35;;;;;;;3.87;1.87;;;;;;;32.05;36.34;99043.52;1782605;80;21100;-44
2021/06/21 10:29:03;;;;;;;3.85;1.72;;;;;;;32.06;36.38;99043.63;1782180;80;20988;-44
2021/06/21 10:31:31;;;;;;;4.05;1.70;;;;;;;32.12;36.81;99040.97;1751660;80;20965;-44
2021/06/21 10:34:01;;;;;;;7.10;2.20;;;;;;;32.15;37.18;99049.75;1782245;80;21021;-44
2021/06/21 10:36:46;;;;;;;2.47;1.50;;;;;;;32.17;37.65;99047.84;1782267;80;21565;-44
2021/06/21 10:39:26;;;;;;;4.37;1.85;;;;;;;32.27;37.14;99049.08;1782200;80;21003;-44
2021/06/21 10:42:10;;;;;;;6.53;2.10;;;;;;;32.37;36.40;99043.31;1782530;80;21031;-44
2021/06/21 10:44:56;;;;;;;4.58;1.82;;;;;;;32.55;36.51;99048.96;1782531;80;21012;-44
2021/06/21 10:47:41;;;;;;;3.67;1.70;;;;;;;32.75;34.99;99045.20;1776004;80;21080;-44
2021/06/21 10:50:21;;;;;;;5.47;1.55;;;;;;;33.00;35.09;99046.70;1782239;80;21070;-44
2021/06/21 10:52:54;;;;;;;4.15;1.92;;;;;;;33.27;34.08;99047.81;1782205;80;21131;-44
2021/06/21 10:55:33;;;;;;;5.10;2.00;;;;;;;33.51;33.74;99039.44;1744799;82;21026;-44
2021/06/21 10:58:25;;;;;;;5.13;1.80;;;;;;;33.72;33.96;99051.81;1745198;82;21558;-44
2021/06/21 11:00:54;;;;;;;4.55;2.40;;;;;;;33.89;33.15;99055.20;1782343;80;21783;-44
2021/06/21 11:03:30;;;;;;;3.00;1.80;;;;;;;34.11;32.89;99052.05;1782597;80;21092;-44
2021/06/21 11:06:01;;;;;;;2.98;1.87;;;;;;;34.33;33.79;99051.81;1744916;82;21676;-44
2021/06/21 11:08:37;;;;;;;5.53;2.00;;;;;;;34.52;32.52;99056.82;1782306;80;21507;-44
2021/06/21 11:11:06;;;;;;;4.40;1.72;;;;;;;34.68;32.42;99050.25;1753770;80;21008;-45
2021/06/21 11:13:40;;;;;;;4.28;1.72;;;;;;;34.87;32.29;99056.64;1724093;80;21012;-44
2021/06/21 11:16:24;;;;;;;5.45;1.98;;;;;;;35.06;31.88;99057.27;1781993;80;20989;-44
2021/06/21 11:19:21;;;;;;;4.53;1.98;;;;;;;35.12;32.87;99061.53;1782119;80;21112;-44
2021/06/21 11:21:53;;;;;;;6.03;1.87;;;;;;;35.24;32.79;99059.34;1781816;80;21007;-44
2021/06/21 11:24:46;;;;;;;5.95;2.52;;;;;;;35.47;31.74;99057.68;1782177;80;20988;-44
2021/06/21 11:27:19;;;;;;;5.08;1.90;;;;;;;35.71;30.64;99063.84;1739559;80;21021;-44
2021/06/21 11:29:54;;;;;;;5.83;1.90;;;;;;;35.93;31.42;99066.89;1747120;82;21048;-44
2021/06/21 11:32:22;;;;;;;5.45;1.82;;;;;;;36.17;30.89;99054.02;1746859;82;21121;-44
2021/06/21 11:34:54;;;;;;;6.45;1.92;;;;;;;36.43;30.07;99051.19;1746811;82;20986;-44
2021/06/21 11:37:42;;;;;;;2.83;1.82;;;;;;;36.48;29.62;99053.14;1746958;82;21067;-44
2021/06/21 11:40:19;;;;;;;6.60;1.85;;;;;;;36.54;29.70;99050.97;1747075;82;21465;-44
2021/06/21 11:43:06;;;;;;;7.67;2.00;;;;;;;36.75;30.32;99046.04;1784388;80;21335;-44
2021/06/21 11:45:48;;;;;;;;;;;;;;;37.05;30.07;99041.37;1749443;82;21037;-44
2021/06/21 11:48:38;;;;;;;4.15;1.60;;;;;;;37.26;29.33;99046.44;1709302;83;20201;-44
2021/06/21 11:51:14;;;;;;;4.05;1.80;;;;;;;37.24;29.71;99045.56;1784312;80;21084;-44
2021/06/21 11:53:46;;;;;;;4.83;1.90;;;;;;;37.35;29.75;99042.47;1784434;80;21562;-44
2021/06/21 11:56:15;;;;;;;4.55;2.17;;;;;;;37.37;28.86;99049.00;1784305;80;20993;-44